San Gennaro — IIOT2 — position and weather

sailwx.info

Track history (hours):
 
Tides and Currents Weather Stations Pressure Air Temp Water Temp Dewpoint Dewpoint Depression Visibility Wind Speed Wind Dir Waves Ship Positions

San Gennaro

Last reported at 2015-Apr-25 08:21 UTC. Time now 2015-Apr-25 08:47 UTC.
Position N 40°51' E 014°16'.

Length 27 m; draft 5.2 m.

Type: Tug. MMSI: 247295700.

Date/timePositionNaut miles runAvg speedWind from/ knotsBaromVisibWave heightAir tempDewpointWater temp
2015-Apr-25 08:21N 40°51' E 014°16'0 0.1
2015-Apr-25 07:29N 40°51' E 014°16'1 0.5
2015-Apr-25 04:33N 40°50' E 014°18'1 0.2
2015-Apr-24 19:33N 40°51' E 014°16'0 0.0
2015-Apr-24 18:27N 40°51' E 014°16'0 0.0
2015-Apr-24 16:31N 40°51' E 014°16'0 0.0
2015-Apr-24 15:32N 40°51' E 014°16'0 0.0
2015-Apr-24 14:28N 40°51' E 014°16'0 0.0
2015-Apr-24 13:29N 40°51' E 014°16'9 9.4
2015-Apr-24 12:33N 40°44' E 014°24'4 4.1
2015-Apr-24 11:33N 40°42' E 014°28'0 0.1
2015-Apr-24 10:33N 40°42' E 014°28'0 0.0
2015-Apr-24 09:34N 40°42' E 014°28'0 0.2
2015-Apr-24 08:33N 40°42' E 014°29'1 0.7
2015-Apr-24 07:34N 40°42' E 014°28'10 9.4
2015-Apr-24 06:32N 40°49' E 014°18'3 2.5
2015-Apr-24 05:27N 40°51' E 014°16'0 0.0
2015-Apr-24 04:20N 40°51' E 014°16'0 0.0
2015-Apr-24 03:29N 40°51' E 014°16'0 0.0
2015-Apr-24 02:33N 40°51' E 014°16'0 0.0
2015-Apr-24 01:25N 40°51' E 014°16'0 0.0
2015-Apr-24 00:22N 40°51' E 014°16'0 0.0
2015-Apr-23 23:32N 40°51' E 014°16'0 0.0
2015-Apr-23 22:28N 40°51' E 014°16'0 0.0
2015-Apr-23 20:15N 40°51' E 014°16'0 0.0
2015-Apr-23 19:22N 40°51' E 014°16'0 0.0
2015-Apr-23 18:33N 40°51' E 014°16'0 0.0
2015-Apr-23 17:33N 40°51' E 014°16'0 0.0
2015-Apr-23 16:33N 40°51' E 014°16'0 0.0
2015-Apr-23 14:28N 40°51' E 014°16'0 0.0
2015-Apr-23 13:33N 40°51' E 014°16'0 0.0
2015-Apr-23 12:33N 40°51' E 014°16'0 0.0
2015-Apr-23 11:31N 40°51' E 014°16'0 0.0
2015-Apr-23 10:29N 40°51' E 014°16'0 0.0
2015-Apr-23 09:31N 40°51' E 014°16'1 0.3
2015-Apr-23 07:27N 40°50' E 014°17'1 0.2
2015-Apr-23 04:26N 40°50' E 014°18'1 1.4
2015-Apr-23 03:32N 40°51' E 014°16'0 0.0
2015-Apr-23 01:25N 40°51' E 014°16'0 0.0
2015-Apr-23 00:33N 40°51' E 014°16'1 0.9
2015-Apr-22 23:33N 40°50' E 014°17'1 0.9
2015-Apr-22 22:33N 40°51' E 014°16'0 0.0
2015-Apr-22 21:32N 40°51' E 014°16'0 0.0
2015-Apr-22 20:33N 40°51' E 014°16'0 0.0
2015-Apr-22 19:22N 40°51' E 014°16'0 0.0
2015-Apr-22 18:33N 40°51' E 014°16'5 5.1
2015-Apr-22 17:33N 40°47' E 014°21'3 2.6
2015-Apr-22 16:30N 40°45' E 014°23'8 8.4
2015-Apr-22 15:33N 40°51' E 014°16'0 0.0
2015-Apr-22 14:33N 40°51' E 014°16'0 0.0
2015-Apr-22 13:25N 40°51' E 014°16'0 0.0
2015-Apr-22 12:29N 40°51' E 014°16'0 0.0
2015-Apr-22 11:31N 40°51' E 014°16'0 0.0
2015-Apr-22 10:32N 40°51' E 014°16'0 0.0
2015-Apr-22 09:33N 40°51' E 014°16'0 0.0
2015-Apr-22 08:24N 40°51' E 014°16'0 0.0
2015-Apr-22 03:14N 40°51' E 014°16'0 0.0
2015-Apr-22 02:21N 40°51' E 014°16'1 0.4
2015-Apr-21 23:29N 40°50' E 014°17'1 1.1
2015-Apr-21 22:32N 40°51' E 014°16'0 0.0
2015-Apr-21 21:27N 40°51' E 014°16'0 0.0
2015-Apr-21 20:33N 40°51' E 014°16'2 0.6
2015-Apr-21 16:32N 40°49' E 014°18'8 7.1
2015-Apr-21 15:28N 40°45' E 014°27'1 1.2
2015-Apr-21 14:33N 40°44' E 014°26'9 6.3
2015-Apr-21 13:07N 40°50' E 014°17'1 0.9
2015-Apr-21 12:23N 40°51' E 014°16'0 0.0
2015-Apr-21 11:33N 40°51' E 014°16'0 0.0
2015-Apr-21 10:33N 40°51' E 014°16'0 0.0
2015-Apr-21 09:33N 40°51' E 014°16'0 0.0
2015-Apr-21 08:27N 40°51' E 014°16'0 0.0
2015-Apr-20 17:08N 40°51' E 014°16'0 0.0
2015-Apr-20 16:33N 40°51' E 014°16'0 0.0
2015-Apr-20 15:32N 40°51' E 014°16'0 0.3
2015-Apr-20 14:29N 40°50' E 014°16'0 0.3
2015-Apr-20 13:33N 40°51' E 014°16'1 1.0
2015-Apr-20 12:32N 40°50' E 014°17'0 0.0
2015-Apr-20 11:33N 40°50' E 014°17'1 0.5
2015-Apr-20 10:33N 40°50' E 014°17'1 0.5
2015-Apr-20 09:32N 40°51' E 014°16'0 0.0
2015-Apr-19 22:11N 40°51' E 014°16'1 1.7
2015-Apr-19 21:33N 40°50' E 014°17'1 0.4
2015-Apr-19 18:28N 40°51' E 014°16'0 0.0
2015-Apr-19 09:09N 40°51' E 014°16'0 0.0
2015-Apr-18 23:14N 40°51' E 014°16'0 0.0
2015-Apr-18 22:31N 40°51' E 014°16'0 0.0
2015-Apr-18 21:24N 40°51' E 014°16'0 0.0
2015-Apr-18 19:27N 40°51' E 014°16'0 0.0
2015-Apr-18 17:04N 40°51' E 014°16'0 0.0
2015-Apr-18 16:32N 40°51' E 014°16'0 0.0
2015-Apr-18 12:05N 40°51' E 014°16'0 0.0
2015-Apr-18 11:31N 40°51' E 014°16'1 0.3
2015-Apr-18 06:30N 40°50' E 014°18'1 0.1
2015-Apr-17 17:23N 40°51' E 014°16'0 0.0
2015-Apr-17 16:33N 40°51' E 014°16'0 0.2
2015-Apr-17 14:32N 40°50' E 014°16'1 0.7
2015-Apr-17 13:06N 40°50' E 014°18'0 0.7
2015-Apr-17 12:33N 40°50' E 014°17'1 0.9
2015-Apr-17 11:32N 40°51' E 014°16'0 0.0
2015-Apr-17 10:28N 40°51' E 014°16'0 0.0
2015-Apr-17 09:28N 40°51' E 014°16'0 0.0
2015-Apr-17 08:27N 40°51' E 014°16'0 0.0
2015-Apr-17 07:10N 40°51' E 014°16'0 0.0
2015-Apr-17 06:33N 40°51' E 014°16'0 0.0
2015-Apr-17 05:22N 40°51' E 014°16'0 0.0
2015-Apr-17 03:33N 40°51' E 014°16'0 0.0
2015-Apr-17 02:32N 40°51' E 014°16'0 0.0
2015-Apr-17 01:09N 40°51' E 014°16'0 0.0
2015-Apr-17 00:09N 40°51' E 014°16'0 0.0
2015-Apr-16 23:32N 40°51' E 014°16'0 0.0
2015-Apr-16 20:15N 40°51' E 014°16'0 0.0
2015-Apr-16 19:32N 40°51' E 014°16'0 0.0
2015-Apr-16 17:32N 40°51' E 014°16'0 0.0
2015-Apr-16 16:33N 40°51' E 014°16'0 0.0
2015-Apr-16 15:33N 40°51' E 014°16'0 0.0
2015-Apr-16 14:33N 40°51' E 014°16'1 1.2
2015-Apr-16 13:33N 40°50' E 014°17'1 0.7
2015-Apr-16 12:32N 40°50' E 014°18'2 1.6
2015-Apr-16 11:20N 40°51' E 014°16'0 0.0
2015-Apr-16 10:04N 40°51' E 014°16'1 0.1
2015-Apr-15 23:33N 40°50' E 014°16'1 0.3
2015-Apr-15 21:18N 40°51' E 014°16'0 0.0
2015-Apr-15 20:29N 40°51' E 014°16'0 0.0
2015-Apr-15 19:31N 40°51' E 014°16'0 0.0
2015-Apr-15 17:30N 40°51' E 014°16'1 1.5
2015-Apr-15 16:33N 40°50' E 014°18'0 0.1
2015-Apr-15 14:14N 40°50' E 014°17'1 1.2
2015-Apr-15 13:33N 40°50' E 014°16'0 0.3
2015-Apr-15 12:32N 40°51' E 014°16'0 0.0
2015-Apr-15 11:25N 40°51' E 014°16'0 0.0
2015-Apr-15 10:15N 40°51' E 014°16'0 0.0
2015-Apr-15 09:32N 40°51' E 014°16'0 0.0
2015-Apr-15 08:23N 40°51' E 014°16'  
Track history (hours):
 
Tides and Currents Weather Stations Pressure Air Temp Water Temp Dewpoint Dewpoint Depression Visibility Wind Speed Wind Dir Waves Ship Positions

San Gennaro

Last reported at 2015-Apr-25 08:21 UTC. Time now 2015-Apr-25 08:47 UTC.
Position N 40°51' E 014°16'.

Length 27 m; draft 5.2 m.

Type: Tug. MMSI: 247295700.

Date/timePositionNaut miles runAvg speedWind from/ knotsBaromVisibWave heightAir tempDewpointWater temp
2015-Apr-25 08:21N 40°51' E 014°16'0 0.1
2015-Apr-25 07:29N 40°51' E 014°16'1 0.5
2015-Apr-25 04:33N 40°50' E 014°18'1 0.2
2015-Apr-24 19:33N 40°51' E 014°16'0 0.0
2015-Apr-24 18:27N 40°51' E 014°16'0 0.0
2015-Apr-24 16:31N 40°51' E 014°16'0 0.0
2015-Apr-24 15:32N 40°51' E 014°16'0 0.0
2015-Apr-24 14:28N 40°51' E 014°16'0 0.0
2015-Apr-24 13:29N 40°51' E 014°16'9 9.4
2015-Apr-24 12:33N 40°44' E 014°24'4 4.1
2015-Apr-24 11:33N 40°42' E 014°28'0 0.1
2015-Apr-24 10:33N 40°42' E 014°28'0 0.0
2015-Apr-24 09:34N 40°42' E 014°28'0 0.2
2015-Apr-24 08:33N 40°42' E 014°29'1 0.7
2015-Apr-24 07:34N 40°42' E 014°28'10 9.4
2015-Apr-24 06:32N 40°49' E 014°18'3 2.5
2015-Apr-24 05:27N 40°51' E 014°16'0 0.0
2015-Apr-24 04:20N 40°51' E 014°16'0 0.0
2015-Apr-24 03:29N 40°51' E 014°16'0 0.0
2015-Apr-24 02:33N 40°51' E 014°16'0 0.0
2015-Apr-24 01:25N 40°51' E 014°16'0 0.0
2015-Apr-24 00:22N 40°51' E 014°16'0 0.0
2015-Apr-23 23:32N 40°51' E 014°16'0 0.0
2015-Apr-23 22:28N 40°51' E 014°16'0 0.0
2015-Apr-23 20:15N 40°51' E 014°16'0 0.0
2015-Apr-23 19:22N 40°51' E 014°16'0 0.0
2015-Apr-23 18:33N 40°51' E 014°16'0 0.0
2015-Apr-23 17:33N 40°51' E 014°16'0 0.0
2015-Apr-23 16:33N 40°51' E 014°16'0 0.0
2015-Apr-23 14:28N 40°51' E 014°16'0 0.0
2015-Apr-23 13:33N 40°51' E 014°16'0 0.0
2015-Apr-23 12:33N 40°51' E 014°16'0 0.0
2015-Apr-23 11:31N 40°51' E 014°16'0 0.0
2015-Apr-23 10:29N 40°51' E 014°16'0 0.0
2015-Apr-23 09:31N 40°51' E 014°16'1 0.3
2015-Apr-23 07:27N 40°50' E 014°17'1 0.2
2015-Apr-23 04:26N 40°50' E 014°18'1 1.4
2015-Apr-23 03:32N 40°51' E 014°16'0 0.0
2015-Apr-23 01:25N 40°51' E 014°16'0 0.0
2015-Apr-23 00:33N 40°51' E 014°16'1 0.9
2015-Apr-22 23:33N 40°50' E 014°17'1 0.9
2015-Apr-22 22:33N 40°51' E 014°16'0 0.0
2015-Apr-22 21:32N 40°51' E 014°16'0 0.0
2015-Apr-22 20:33N 40°51' E 014°16'0 0.0
2015-Apr-22 19:22N 40°51' E 014°16'0 0.0
2015-Apr-22 18:33N 40°51' E 014°16'5 5.1
2015-Apr-22 17:33N 40°47' E 014°21'3 2.6
2015-Apr-22 16:30N 40°45' E 014°23'8 8.4
2015-Apr-22 15:33N 40°51' E 014°16'0 0.0
2015-Apr-22 14:33N 40°51' E 014°16'0 0.0
2015-Apr-22 13:25N 40°51' E 014°16'0 0.0
2015-Apr-22 12:29N 40°51' E 014°16'0 0.0
2015-Apr-22 11:31N 40°51' E 014°16'0 0.0
2015-Apr-22 10:32N 40°51' E 014°16'0 0.0
2015-Apr-22 09:33N 40°51' E 014°16'0 0.0
2015-Apr-22 08:24N 40°51' E 014°16'0 0.0
2015-Apr-22 03:14N 40°51' E 014°16'0 0.0
2015-Apr-22 02:21N 40°51' E 014°16'1 0.4
2015-Apr-21 23:29N 40°50' E 014°17'1 1.1
2015-Apr-21 22:32N 40°51' E 014°16'0 0.0
2015-Apr-21 21:27N 40°51' E 014°16'0 0.0
2015-Apr-21 20:33N 40°51' E 014°16'2 0.6
2015-Apr-21 16:32N 40°49' E 014°18'8 7.1
2015-Apr-21 15:28N 40°45' E 014°27'1 1.2
2015-Apr-21 14:33N 40°44' E 014°26'9 6.3
2015-Apr-21 13:07N 40°50' E 014°17'1 0.9
2015-Apr-21 12:23N 40°51' E 014°16'0 0.0
2015-Apr-21 11:33N 40°51' E 014°16'0 0.0
2015-Apr-21 10:33N 40°51' E 014°16'0 0.0
2015-Apr-21 09:33N 40°51' E 014°16'0 0.0
2015-Apr-21 08:27N 40°51' E 014°16'0 0.0
2015-Apr-20 17:08N 40°51' E 014°16'0 0.0
2015-Apr-20 16:33N 40°51' E 014°16'0 0.0
2015-Apr-20 15:32N 40°51' E 014°16'0 0.3
2015-Apr-20 14:29N 40°50' E 014°16'0 0.3
2015-Apr-20 13:33N 40°51' E 014°16'1 1.0
2015-Apr-20 12:32N 40°50' E 014°17'0 0.0
2015-Apr-20 11:33N 40°50' E 014°17'1 0.5
2015-Apr-20 10:33N 40°50' E 014°17'1 0.5
2015-Apr-20 09:32N 40°51' E 014°16'0 0.0
2015-Apr-19 22:11N 40°51' E 014°16'1 1.7
2015-Apr-19 21:33N 40°50' E 014°17'1 0.4
2015-Apr-19 18:28N 40°51' E 014°16'0 0.0
2015-Apr-19 09:09N 40°51' E 014°16'0 0.0
2015-Apr-18 23:14N 40°51' E 014°16'0 0.0
2015-Apr-18 22:31N 40°51' E 014°16'0 0.0
2015-Apr-18 21:24N 40°51' E 014°16'0 0.0
2015-Apr-18 19:27N 40°51' E 014°16'0 0.0
2015-Apr-18 17:04N 40°51' E 014°16'0 0.0
2015-Apr-18 16:32N 40°51' E 014°16'0 0.0
2015-Apr-18 12:05N 40°51' E 014°16'0 0.0
2015-Apr-18 11:31N 40°51' E 014°16'1 0.3
2015-Apr-18 06:30N 40°50' E 014°18'1 0.1
2015-Apr-17 17:23N 40°51' E 014°16'0 0.0
2015-Apr-17 16:33N 40°51' E 014°16'0 0.2
2015-Apr-17 14:32N 40°50' E 014°16'1 0.7
2015-Apr-17 13:06N 40°50' E 014°18'0 0.7
2015-Apr-17 12:33N 40°50' E 014°17'1 0.9
2015-Apr-17 11:32N 40°51' E 014°16'0 0.0
2015-Apr-17 10:28N 40°51' E 014°16'0 0.0
2015-Apr-17 09:28N 40°51' E 014°16'0 0.0
2015-Apr-17 08:27N 40°51' E 014°16'0 0.0
2015-Apr-17 07:10N 40°51' E 014°16'0 0.0
2015-Apr-17 06:33N 40°51' E 014°16'0 0.0
2015-Apr-17 05:22N 40°51' E 014°16'0 0.0
2015-Apr-17 03:33N 40°51' E 014°16'0 0.0
2015-Apr-17 02:32N 40°51' E 014°16'0 0.0
2015-Apr-17 01:09N 40°51' E 014°16'0 0.0
2015-Apr-17 00:09N 40°51' E 014°16'0 0.0
2015-Apr-16 23:32N 40°51' E 014°16'0 0.0
2015-Apr-16 20:15N 40°51' E 014°16'0 0.0
2015-Apr-16 19:32N 40°51' E 014°16'0 0.0
2015-Apr-16 17:32N 40°51' E 014°16'0 0.0
2015-Apr-16 16:33N 40°51' E 014°16'0 0.0
2015-Apr-16 15:33N 40°51' E 014°16'0 0.0
2015-Apr-16 14:33N 40°51' E 014°16'1 1.2
2015-Apr-16 13:33N 40°50' E 014°17'1 0.7
2015-Apr-16 12:32N 40°50' E 014°18'2 1.6
2015-Apr-16 11:20N 40°51' E 014°16'0 0.0
2015-Apr-16 10:04N 40°51' E 014°16'1 0.1
2015-Apr-15 23:33N 40°50' E 014°16'1 0.3
2015-Apr-15 21:18N 40°51' E 014°16'0 0.0
2015-Apr-15 20:29N 40°51' E 014°16'0 0.0
2015-Apr-15 19:31N 40°51' E 014°16'0 0.0
2015-Apr-15 17:30N 40°51' E 014°16'1 1.5
2015-Apr-15 16:33N 40°50' E 014°18'0 0.1
2015-Apr-15 14:14N 40°50' E 014°17'1 1.2
2015-Apr-15 13:33N 40°50' E 014°16'0 0.3
2015-Apr-15 12:32N 40°51' E 014°16'0 0.0
2015-Apr-15 11:25N 40°51' E 014°16'0 0.0
2015-Apr-15 10:15N 40°51' E 014°16'0 0.0
2015-Apr-15 09:32N 40°51' E 014°16'0 0.0
2015-Apr-15 08:23N 40°51' E 014°16'  

Dump ship's entire track history